Time;durP1;ratioP1;P1;durP2;ratioP2;P2;SDS_P1;SDS_P2;PMS_P1;PMS_P2;Temp;Humidity;BMP_temperature;BMP_pressure;BME280_temperature;BME280_humidity;BME280_pressure;Samples;Min_cycle;Max_cycle;Signal;HPM_P1;HPM_P2
2022/12/26 00:01:01;;;;;;;6.10;5.50;;;9.80;99.90;;;;;;5105714;28;20031;-60
2022/12/26 00:03:29;;;;;;;5.78;5.15;;;9.90;99.90;;;;;;5086980;28;20028;-59
2022/12/26 00:05:55;;;;;;;6.15;5.55;;;9.90;99.90;;;;;;5104179;28;20028;-60
2022/12/26 00:08:20;;;;;;;6.43;5.28;;;9.90;99.90;;;;;;5105405;28;20043;-60
2022/12/26 00:10:46;;;;;;;6.15;4.95;;;9.90;99.90;;;;;;5103814;28;20126;-60
2022/12/26 00:13:11;;;;;;;6.03;5.43;;;9.80;99.90;;;;;;5087102;28;20028;-60
2022/12/26 00:15:39;;;;;;;6.65;5.93;;;9.80;99.90;;;;;;5104046;28;20102;-60
2022/12/26 00:18:05;;;;;;;5.35;4.85;;;9.80;99.90;;;;;;5104001;28;20032;-60
2022/12/26 00:20:30;;;;;;;6.57;5.97;;;9.80;99.90;;;;;;5086851;28;20031;-60
2022/12/26 00:22:56;;;;;;;5.90;5.30;;;9.80;99.90;;;;;;5105252;28;20039;-60
2022/12/26 00:25:21;;;;;;;5.68;5.18;;;9.90;99.90;;;;;;5103889;28;20037;-60
2022/12/26 00:27:47;;;;;;;6.40;5.80;;;9.80;99.90;;;;;;5103760;28;20052;-60
2022/12/26 00:30:13;;;;;;;6.00;5.40;;;9.80;99.90;;;;;;5105009;28;20081;-60
2022/12/26 00:32:38;;;;;;;5.90;5.30;;;9.80;99.90;;;;;;5104055;28;20043;-60
2022/12/26 00:35:04;;;;;;;6.13;5.53;;;9.80;99.90;;;;;;5103789;28;20040;-60
2022/12/26 00:37:29;;;;;;;6.60;5.63;;;9.80;99.90;;;;;;5103819;28;20024;-60
2022/12/26 00:39:56;;;;;;;5.88;5.28;;;9.80;99.90;;;;;;5103739;28;20046;-60
2022/12/26 00:42:21;;;;;;;5.93;5.32;;;9.80;99.90;;;;;;5103758;28;20093;-60
2022/12/26 00:44:47;;;;;;;5.32;4.82;;;9.80;99.90;;;;;;5103465;28;20032;-60
2022/12/26 00:47:12;;;;;;;5.18;4.68;;;9.80;99.90;;;;;;5103522;28;20085;-60
2022/12/26 00:49:38;;;;;;;5.47;4.85;;;9.80;99.90;;;;;;5104969;28;20081;-60
2022/12/26 00:52:03;;;;;;;6.05;5.45;;;9.80;99.90;;;;;;5103604;28;20024;-60
2022/12/26 00:54:29;;;;;;;5.05;4.65;;;9.80;99.90;;;;;;5103630;28;20028;-60
2022/12/26 00:56:54;;;;;;;5.38;4.72;;;9.80;99.90;;;;;;5103597;28;20092;-60
2022/12/26 00:59:20;;;;;;;5.35;4.85;;;9.70;99.90;;;;;;5103565;28;20092;-60
2022/12/26 01:01:46;;;;;;;5.78;5.18;;;9.70;99.90;;;;;;5103649;28;20032;-60
2022/12/26 01:04:11;;;;;;;5.55;5.03;;;9.70;99.90;;;;;;5103354;28;20496;-60
2022/12/26 01:06:37;;;;;;;5.97;5.40;;;9.70;99.90;;;;;;5104984;28;20134;-60
2022/12/26 01:09:02;;;;;;;5.32;4.80;;;9.70;99.90;;;;;;5103573;28;20332;-60
2022/12/26 01:11:40;;;;;;;7.05;5.60;;;9.70;99.90;;;;;;5104830;28;20024;-60
2022/12/26 01:14:13;;;;;;;5.90;5.30;;;9.70;99.90;;;;;;5103574;28;20077;-60
2022/12/26 01:16:39;;;;;;;5.85;5.20;;;9.70;99.90;;;;;;5103826;28;20051;-59
2022/12/26 01:19:05;;;;;;;5.25;4.75;;;9.70;99.90;;;;;;5105420;28;20032;-60
2022/12/26 01:21:30;;;;;;;6.00;5.40;;;9.70;99.90;;;;;;5104644;28;20028;-60
2022/12/26 01:23:56;;;;;;;5.93;5.32;;;9.60;99.90;;;;;;5107380;28;20032;-59
2022/12/26 01:26:21;;;;;;;5.10;4.60;;;9.60;99.90;;;;;;5108454;28;20043;-60
2022/12/26 01:28:47;;;;;;;5.82;5.32;;;9.60;99.90;;;;;;5107040;28;20028;-60
2022/12/26 01:31:13;;;;;;;6.03;5.43;;;9.60;99.90;;;;;;5107188;28;20031;-60
2022/12/26 01:33:39;;;;;;;5.18;4.68;;;9.60;99.90;;;;;;5107038;28;20032;-60
2022/12/26 01:36:04;;;;;;;4.90;4.40;;;9.60;99.90;;;;;;5108598;28;20020;-60
2022/12/26 01:38:30;;;;;;;5.65;5.07;;;9.60;99.90;;;;;;5107035;28;20059;-60
2022/12/26 01:43:53;;;;;;;5.28;4.78;;;9.60;99.90;;;;;;5107191;28;20034;-60
2022/12/26 01:46:21;;;;;;;5.18;4.68;;;9.60;99.90;;;;;;5106914;28;20043;-60
2022/12/26 01:48:47;;;;;;;5.57;5.03;;;9.50;99.90;;;;;;5106816;28;20040;-60
2022/12/26 01:51:12;;;;;;;5.47;4.97;;;9.60;99.90;;;;;;5089654;28;20032;-60
2022/12/26 01:53:49;;;;;;;5.50;5.00;;;9.60;99.90;;;;;;5106538;28;20059;-60
2022/12/26 01:56:17;;;;;;;5.85;5.28;;;9.50;99.90;;;;;;5106680;28;20032;-60
2022/12/26 01:58:48;;;;;;;5.40;4.90;;;9.60;99.90;;;;;;5106730;28;20134;-60
2022/12/26 02:01:13;;;;;;;4.68;4.20;;;9.60;99.90;;;;;;5106612;28;20092;-60
2022/12/26 02:06:25;;;;;;;5.33;4.83;;;9.50;99.90;;;;;;5106870;28;20092;-60
2022/12/26 02:08:50;;;;;;;5.70;4.95;;;9.50;99.90;;;;;;5106412;28;20027;-60
2022/12/26 02:11:23;;;;;;;5.22;4.68;;;9.50;99.90;;;;;;5106442;28;20077;-60
2022/12/26 02:13:48;;;;;;;6.10;4.95;;;9.50;99.90;;;;;;5106295;28;20051;-60
2022/12/26 02:16:15;;;;;;;5.53;4.88;;;9.50;99.90;;;;;;5106093;28;20043;-60
2022/12/26 02:18:40;;;;;;;5.38;4.78;;;9.50;99.90;;;;;;5106167;28;20024;-60
2022/12/26 02:21:37;;;;;;;5.18;4.68;;;9.50;99.90;;;;;;5106222;28;20043;-60
2022/12/26 02:24:38;;;;;;;6.18;5.00;;;9.50;99.90;;;;;;5106232;28;20103;-60
2022/12/26 02:27:20;;;;;;;4.65;4.25;;;9.50;99.90;;;;;;5106255;28;20036;-60
2022/12/26 02:30:37;;;;;;;5.22;4.72;;;9.50;99.90;;;;;;5089024;28;20082;-60
2022/12/26 02:33:38;;;;;;;5.28;4.78;;;9.50;99.90;;;;;;5105541;28;20047;-60
2022/12/26 02:36:33;;;;;;;5.25;4.75;;;9.50;99.90;;;;;;5105447;28;20036;-60
2022/12/26 02:39:45;;;;;;;5.03;4.53;;;9.50;99.90;;;;;;5105587;28;20063;-59
2022/12/26 02:42:29;;;;;;;5.60;5.00;;;9.50;99.90;;;;;;5105364;28;20040;-60
2022/12/26 02:47:56;;;;;;;5.03;4.53;;;9.50;99.90;;;;;;5106887;28;20039;-60
2022/12/26 03:14:30;;;;;;;;;;;9.50;99.90;;;;;;5105844;28;20030;-60
2022/12/26 03:17:18;;;;;;;5.55;4.80;;;9.50;99.90;;;;;;5105000;28;19908;-60
2022/12/26 03:20:00;;;;;;;5.72;5.13;;;9.50;99.90;;;;;;5105166;28;20036;-60
2022/12/26 03:22:35;;;;;;;6.25;5.05;;;9.50;99.90;;;;;;5105106;28;20028;-60
2022/12/26 03:27:48;;;;;;;5.30;4.80;;;9.50;99.90;;;;;;5105327;28;20040;-60
2022/12/26 03:32:58;;;;;;;6.10;5.18;;;9.50;99.90;;;;;;5104894;28;20065;-59
2022/12/26 03:35:25;;;;;;;5.72;5.13;;;9.40;99.90;;;;;;5104865;28;20043;-59
2022/12/26 03:37:55;;;;;;;7.10;5.43;;;9.40;99.90;;;;;;5104808;28;20028;-60
2022/12/26 04:44:11;;;;;;;6.50;5.82;;;9.50;99.90;;;;;;5114678;28;20197;-60
2022/12/26 04:46:38;;;;;;;7.13;5.70;;;9.50;99.90;;;;;;5126512;28;20154;-60
2022/12/26 04:51:50;;;;;;;7.30;5.40;;;9.50;99.90;;;;;;5111975;28;20035;-60
2022/12/26 04:54:16;;;;;;;6.07;5.45;;;9.50;99.90;;;;;;5103574;28;20372;-59
2022/12/26 04:56:41;;;;;;;7.63;5.85;;;9.50;99.90;;;;;;5104778;28;20024;-60
2022/12/26 04:59:07;;;;;;;5.80;5.20;;;9.50;99.90;;;;;;5109164;28;20039;-60
2022/12/26 05:09:47;;;;;;;7.50;5.18;;;9.60;99.90;;;;;;5107744;28;20097;-60
2022/12/26 05:12:12;;;;;;;5.57;4.97;;;9.50;99.90;;;;;;5107566;28;20028;-60
2022/12/26 05:14:38;;;;;;;6.10;5.40;;;9.60;99.90;;;;;;5107321;28;20031;-60
2022/12/26 05:31:15;;;;;;;5.95;5.28;;;9.60;99.90;;;;;;5073978;28;20127;-60
2022/12/26 05:36:30;;;;;;;6.18;5.32;;;9.60;99.90;;;;;;5107462;28;20081;-60
2022/12/26 05:38:56;;;;;;;6.80;5.50;;;9.60;99.90;;;;;;5107628;28;20149;-60
2022/12/26 05:41:22;;;;;;;5.90;5.15;;;9.60;99.90;;;;;;5108303;28;20398;-59
2022/12/26 05:43:48;;;;;;;5.65;5.05;;;9.60;99.90;;;;;;5106627;28;20042;-60
2022/12/26 05:46:13;;;;;;;5.93;5.13;;;9.60;99.90;;;;;;5106769;28;20091;-60
2022/12/26 05:48:39;;;;;;;5.80;5.15;;;9.60;99.90;;;;;;5106581;28;20064;-60
2022/12/26 05:51:04;;;;;;;5.80;5.30;;;9.60;99.90;;;;;;5108179;28;20059;-60
2022/12/26 05:53:30;;;;;;;5.97;4.78;;;9.60;99.90;;;;;;5108090;28;20112;-59
2022/12/26 05:56:04;;;;;;;5.32;4.82;;;9.60;99.90;;;;;;5108036;28;20028;-60
2022/12/26 05:58:30;;;;;;;5.78;4.80;;;9.60;99.90;;;;;;5106777;28;20032;-60
2022/12/26 06:01:13;;;;;;;5.07;4.57;;;9.70;99.90;;;;;;5108053;28;20059;-60
2022/12/26 06:03:39;;;;;;;5.45;4.70;;;9.60;99.90;;;;;;5107730;28;20488;-60
2022/12/26 06:06:05;;;;;;;6.40;5.43;;;9.70;99.90;;;;;;5106743;28;20028;-60
2022/12/26 06:08:30;;;;;;;6.13;5.30;;;9.70;99.90;;;;;;5105730;28;20037;-60
2022/12/26 06:10:56;;;;;;;5.90;4.82;;;9.70;99.90;;;;;;5107873;28;20028;-60
2022/12/26 06:13:21;;;;;;;6.90;5.10;;;9.70;99.90;;;;;;5106305;28;20051;-60
2022/12/26 06:15:47;;;;;;;7.70;4.75;;;9.60;99.90;;;;;;5106144;28;20092;-60
2022/12/26 06:18:13;;;;;;;5.53;5.03;;;9.60;99.90;;;;;;5106134;28;20024;-60
2022/12/26 06:20:38;;;;;;;5.63;5.03;;;9.60;99.90;;;;;;5107611;28;20032;-60
2022/12/26 06:23:04;;;;;;;5.60;5.00;;;9.60;99.90;;;;;;5106149;28;20046;-60
2022/12/26 06:25:30;;;;;;;5.88;5.05;;;9.60;99.90;;;;;;5107611;28;20047;-59
2022/12/26 06:27:55;;;;;;;5.97;5.15;;;9.70;99.90;;;;;;5105890;28;20077;-60
2022/12/26 06:30:21;;;;;;;7.03;5.10;;;9.70;99.90;;;;;;5106136;28;20035;-59
2022/12/26 06:32:46;;;;;;;5.40;4.50;;;9.70;99.90;;;;;;5107451;28;20032;-60
2022/12/26 06:35:12;;;;;;;5.75;5.15;;;9.70;99.90;;;;;;5089018;28;20103;-60
2022/12/26 06:37:37;;;;;;;6.32;4.70;;;9.70;99.90;;;;;;5105993;28;20032;-60
2022/12/26 06:40:04;;;;;;;5.60;4.72;;;9.70;99.90;;;;;;5107281;28;20123;-60
2022/12/26 06:42:29;;;;;;;5.65;4.78;;;9.70;99.90;;;;;;5105947;28;20038;-60
2022/12/26 06:44:55;;;;;;;5.68;5.00;;;9.70;99.90;;;;;;5105468;28;20128;-59
2022/12/26 06:47:20;;;;;;;4.95;4.47;;;9.70;99.90;;;;;;5107131;28;20445;-60
2022/12/26 06:49:46;;;;;;;5.75;4.90;;;9.70;99.90;;;;;;5105469;28;20062;-59
2022/12/26 06:52:12;;;;;;;6.00;4.90;;;9.70;99.90;;;;;;5106969;28;20094;-60
2022/12/26 06:54:38;;;;;;;5.30;4.72;;;9.70;99.90;;;;;;5105573;28;20120;-60
2022/12/26 06:57:03;;;;;;;6.15;4.35;;;9.70;99.90;;;;;;5105396;28;20028;-60
2022/12/26 06:59:29;;;;;;;5.13;4.60;;;9.70;99.90;;;;;;5105329;28;20085;-60
2022/12/26 07:01:55;;;;;;;4.93;4.47;;;9.70;99.90;;;;;;5106864;28;20435;-59
2022/12/26 07:04:20;;;;;;;4.30;3.90;;;9.70;99.90;;;;;;5105223;28;20031;-60
2022/12/26 07:06:46;;;;;;;5.47;4.13;;;9.70;99.90;;;;;;5106591;28;20035;-60
2022/12/26 07:09:13;;;;;;;5.32;4.82;;;9.70;99.90;;;;;;5105178;28;20187;-60
2022/12/26 07:11:40;;;;;;;5.35;4.53;;;9.70;99.90;;;;;;5106620;28;20043;-60
2022/12/26 07:14:05;;;;;;;4.90;4.30;;;9.70;99.90;;;;;;5104999;28;20085;-60
2022/12/26 07:16:33;;;;;;;5.38;4.45;;;9.70;99.90;;;;;;5104924;28;20452;-60
2022/12/26 07:18:59;;;;;;;4.15;3.75;;;9.70;99.90;;;;;;5103945;28;20055;-60
2022/12/26 07:21:25;;;;;;;5.28;4.20;;;9.70;99.90;;;;;;5105138;28;20020;-60
2022/12/26 07:23:50;;;;;;;5.13;4.00;;;9.80;99.90;;;;;;5106296;28;20024;-60
2022/12/26 07:26:16;;;;;;;4.38;3.97;;;9.70;99.90;;;;;;5105069;28;20426;-60
2022/12/26 07:28:42;;;;;;;4.55;4.13;;;9.70;99.90;;;;;;5104727;28;20435;-60
2022/12/26 07:31:07;;;;;;;4.55;3.53;;;9.70;99.90;;;;;;5106264;28;20040;-60
2022/12/26 07:33:33;;;;;;;5.85;4.10;;;9.80;99.90;;;;;;5104794;28;20025;-60
2022/12/26 07:36:03;;;;;;;4.68;4.15;;;9.80;99.90;;;;;;5104772;28;20016;-59
2022/12/26 07:38:29;;;;;;;4.95;4.07;;;9.80;99.90;;;;;;5105951;28;20151;-60
2022/12/26 07:40:55;;;;;;;6.63;4.22;;;9.80;99.90;;;;;;5104606;28;20090;-60
2022/12/26 07:43:21;;;;;;;4.75;3.70;;;9.80;99.90;;;;;;5104804;28;20063;-59
2022/12/26 07:45:47;;;;;;;6.47;4.40;;;9.80;99.90;;;;;;5104710;28;20040;-60
2022/12/26 07:48:12;;;;;;;4.55;3.78;;;9.80;99.90;;;;;;5104297;28;20035;-59
2022/12/26 07:50:38;;;;;;;5.50;3.92;;;9.80;99.90;;;;;;5104626;28;20028;-60
2022/12/26 07:53:03;;;;;;;5.13;4.05;;;9.80;99.90;;;;;;5104238;28;20099;-60
2022/12/26 07:55:29;;;;;;;5.05;4.10;;;9.80;99.90;;;;;;5104474;28;20028;-60
2022/12/26 07:57:54;;;;;;;6.55;4.30;;;9.80;99.90;;;;;;5104430;28;20051;-59
2022/12/26 08:00:20;;;;;;;6.70;4.25;;;9.80;99.90;;;;;;5104213;28;20020;-60
2022/12/26 08:02:49;;;;;;;4.47;4.00;;;9.80;99.90;;;;;;5104117;28;20105;-60
2022/12/26 08:05:15;;;;;;;4.47;4.03;;;9.80;99.90;;;;;;5104266;28;20137;-60
2022/12/26 08:07:41;;;;;;;4.30;3.80;;;9.90;99.90;;;;;;5104201;28;20052;-60
2022/12/26 08:10:07;;;;;;;4.55;3.58;;;9.80;99.90;;;;;;5104021;28;20039;-60
2022/12/26 08:12:33;;;;;;;5.40;4.15;;;9.90;99.90;;;;;;5103977;28;20032;-60
2022/12/26 08:14:58;;;;;;;5.13;4.28;;;9.90;99.90;;;;;;5104034;28;20043;-60
2022/12/26 08:17:24;;;;;;;7.15;4.53;;;9.90;99.90;;;;;;5104065;28;20024;-60
2022/12/26 08:19:49;;;;;;;6.85;4.25;;;9.90;99.90;;;;;;5105397;28;20150;-60
2022/12/26 08:22:15;;;;;;;4.75;3.70;;;9.90;99.90;;;;;;5103930;28;20066;-60
2022/12/26 08:24:40;;;;;;;5.80;3.80;;;9.90;99.90;;;;;;5103809;28;20036;-60
2022/12/26 08:27:06;;;;;;;4.93;4.05;;;9.90;99.90;;;;;;5105294;28;20043;-60
2022/12/26 08:29:31;;;;;;;4.63;3.85;;;9.90;99.90;;;;;;5103531;28;20028;-59
2022/12/26 08:31:57;;;;;;;4.63;3.85;;;9.90;99.90;;;;;;5103433;28;20047;-60
2022/12/26 08:34:22;;;;;;;4.30;3.60;;;9.90;99.90;;;;;;5105228;28;20028;-59
2022/12/26 08:36:51;;;;;;;6.95;4.20;;;10.00;99.90;;;;;;5103850;28;20131;-60
2022/12/26 08:39:17;;;;;;;4.25;3.67;;;9.90;99.90;;;;;;5103643;28;20035;-60
2022/12/26 08:41:42;;;;;;;4.50;3.63;;;10.00;99.90;;;;;;5103829;28;20039;-59
2022/12/26 08:44:09;;;;;;;5.78;3.80;;;10.00;99.90;;;;;;5103412;28;20070;-60
2022/12/26 08:46:34;;;;;;;6.85;3.90;;;10.00;99.90;;;;;;5103829;28;20020;-60
2022/12/26 08:49:00;;;;;;;5.38;3.80;;;10.00;99.90;;;;;;5103532;28;20038;-59
2022/12/26 08:51:25;;;;;;;5.22;3.60;;;10.00;99.90;;;;;;5103576;28;20041;-60
2022/12/26 08:53:52;;;;;;;3.47;3.17;;;10.00;99.90;;;;;;5104886;28;20028;-60
2022/12/26 08:56:19;;;;;;;4.30;3.63;;;10.00;99.90;;;;;;5103532;28;20032;-60
2022/12/26 08:58:45;;;;;;;5.25;3.83;;;10.10;99.90;;;;;;5103510;28;20024;-60
2022/12/26 09:01:15;;;;;;;4.20;3.58;;;10.10;99.90;;;;;;5103341;28;20039;-60
2022/12/26 09:03:41;;;;;;;3.88;3.47;;;10.10;99.90;;;;;;5086611;28;20066;-60
2022/12/26 09:06:06;;;;;;;5.20;3.75;;;10.10;99.90;;;;;;5103443;28;20028;-60
2022/12/26 09:08:35;;;;;;;4.30;3.47;;;10.10;99.90;;;;;;5104817;28;20032;-60
2022/12/26 09:11:02;;;;;;;4.72;3.15;;;10.10;99.90;;;;;;5105022;28;20459;-59
2022/12/26 09:13:28;;;;;;;5.93;3.50;;;10.10;99.90;;;;;;5103408;28;20315;-59
2022/12/26 09:15:53;;;;;;;5.20;3.55;;;10.10;99.90;;;;;;5103661;28;20436;-60
2022/12/26 09:18:19;;;;;;;4.38;3.67;;;10.20;99.90;;;;;;5104463;28;20042;-60
2022/12/26 09:20:44;;;;;;;3.90;3.47;;;10.20;99.90;;;;;;5103252;28;20024;-59
2022/12/26 09:23:10;;;;;;;6.05;3.58;;;10.20;99.90;;;;;;5103199;28;20048;-59
2022/12/26 09:25:35;;;;;;;4.57;3.30;;;10.20;99.90;;;;;;5103247;28;20066;-60
2022/12/26 09:28:01;;;;;;;4.85;3.50;;;10.20;99.90;;;;;;5103104;28;20024;-59
2022/12/26 09:30:26;;;;;;;5.55;3.70;;;10.20;99.90;;;;;;5103092;28;20058;-60
2022/12/26 09:32:52;;;;;;;3.83;3.42;;;10.20;99.90;;;;;;5104524;28;20084;-59
2022/12/26 09:35:18;;;;;;;4.63;3.35;;;10.20;99.90;;;;;;5104758;28;20360;-60
2022/12/26 09:37:44;;;;;;;4.72;3.60;;;10.30;99.90;;;;;;5103104;28;20020;-60
2022/12/26 09:40:19;;;;;;;4.55;3.22;;;10.30;99.90;;;;;;5104717;28;20028;-60
2022/12/26 09:43:13;;;;;;;6.70;3.83;;;10.30;99.90;;;;;;5104567;28;20036;-60
2022/12/26 09:45:44;;;;;;;4.43;3.40;;;10.30;99.90;;;;;;5107245;28;20054;-60
2022/12/26 09:48:28;;;;;;;4.90;3.10;;;10.30;99.90;;;;;;5107015;28;20475;-59
2022/12/26 09:50:53;;;;;;;5.75;3.78;;;10.30;99.90;;;;;;5106820;28;20036;-60
2022/12/26 09:53:33;;;;;;;4.85;3.25;;;10.30;99.90;;;;;;5106647;28;20032;-60
2022/12/26 09:56:04;;;;;;;4.93;3.83;;;10.30;99.90;;;;;;5106881;28;20079;-59
2022/12/26 09:58:45;;;;;;;3.90;3.22;;;10.30;99.90;;;;;;5106814;28;20035;-59
2022/12/26 10:01:19;;;;;;;4.78;3.30;;;10.30;99.90;;;;;;5108209;28;20040;-60
2022/12/26 10:03:49;;;;;;;4.18;3.53;;;10.40;99.90;;;;;;5106471;28;20024;-59
2022/12/26 10:06:19;;;;;;;3.63;3.22;;;10.40;99.90;;;;;;5106491;28;20048;-59
2022/12/26 10:08:51;;;;;;;4.10;3.70;;;10.40;99.90;;;;;;5106189;28;20028;-59
2022/12/26 10:11:21;;;;;;;4.78;3.42;;;10.40;99.90;;;;;;5107946;28;20043;-60
2022/12/26 10:13:50;;;;;;;4.18;3.30;;;10.40;99.90;;;;;;5106583;28;20020;-60
2022/12/26 10:16:23;;;;;;;6.93;3.40;;;10.40;99.90;;;;;;5106541;28;20043;-59
2022/12/26 10:19:09;;;;;;;3.70;3.30;;;10.40;99.90;;;;;;5106249;28;20526;-59
2022/12/26 10:21:43;;;;;;;5.47;3.60;;;10.40;99.90;;;;;;5091361;28;20035;-59
2022/12/26 10:24:20;;;;;;;4.68;3.60;;;10.40;99.90;;;;;;5107525;28;20036;-60
2022/12/26 10:26:59;;;;;;;4.80;3.17;;;10.40;99.90;;;;;;5105975;28;20092;-60
2022/12/26 10:29:30;;;;;;;4.07;3.35;;;10.40;99.90;;;;;;5105972;28;20028;-60
2022/12/26 10:31:59;;;;;;;4.22;3.42;;;10.50;99.90;;;;;;5106061;28;20028;-60
2022/12/26 10:34:28;;;;;;;4.22;3.22;;;10.50;99.90;;;;;;5105850;28;20419;-60
2022/12/26 10:37:02;;;;;;;5.18;3.53;;;10.50;99.90;;;;;;5105817;28;20027;-59
2022/12/26 10:39:42;;;;;;;6.10;3.60;;;10.50;99.90;;;;;;5105750;28;20259;-59
2022/12/26 10:42:16;;;;;;;5.43;3.90;;;10.50;99.90;;;;;;5105667;28;20039;-59
2022/12/26 10:44:42;;;;;;;5.25;3.28;;;10.50;99.90;;;;;;5105609;28;20456;-59
2022/12/26 10:47:30;;;;;;;5.10;3.47;;;10.50;99.90;;;;;;5105654;28;20035;-60
2022/12/26 10:49:58;;;;;;;4.00;3.20;;;10.50;99.90;;;;;;5105831;28;20028;-60
2022/12/26 10:52:32;;;;;;;3.88;3.05;;;10.50;99.90;;;;;;5107036;28;20495;-60
2022/12/26 10:54:58;;;;;;;5.35;3.25;;;10.50;99.90;;;;;;5105469;28;20032;-60
2022/12/26 10:57:26;;;;;;;3.85;3.10;;;10.50;99.90;;;;;;5105643;28;20043;-60
2022/12/26 10:59:53;;;;;;;4.28;3.15;;;10.50;99.90;;;;;;5105390;28;20034;-60
2022/12/26 11:02:23;;;;;;;4.55;3.45;;;10.60;99.90;;;;;;5105456;28;20028;-60
2022/12/26 11:04:57;;;;;;;3.97;3.00;;;10.60;99.90;;;;;;5106716;28;20054;-60
2022/12/26 11:07:24;;;;;;;4.82;3.38;;;10.60;99.90;;;;;;5106744;28;20043;-60
2022/12/26 11:09:50;;;;;;;4.75;3.58;;;10.60;99.90;;;;;;5105070;28;20039;-60
2022/12/26 11:12:24;;;;;;;5.80;3.30;;;10.60;99.90;;;;;;5105389;28;20506;-60
2022/12/26 11:14:55;;;;;;;5.28;3.53;;;10.60;99.90;;;;;;5105164;28;20035;-60
2022/12/26 11:17:29;;;;;;;4.32;3.13;;;10.60;99.90;;;;;;5105265;28;20029;-60
2022/12/26 11:20:13;;;;;;;5.43;3.55;;;10.60;99.90;;;;;;5088307;28;20042;-60
2022/12/26 11:22:38;;;;;;;5.32;3.63;;;10.60;99.90;;;;;;5106424;28;20036;-60
2022/12/26 11:25:23;;;;;;;4.07;3.10;;;10.60;99.90;;;;;;5104791;28;20059;-60
2022/12/26 11:27:51;;;;;;;5.13;3.55;;;10.60;99.90;;;;;;5104925;28;20036;-60
2022/12/26 11:30:29;;;;;;;4.97;3.28;;;10.60;99.90;;;;;;5104780;28;20047;-60
2022/12/26 11:33:08;;;;;;;4.50;3.53;;;10.70;99.90;;;;;;5087823;28;20024;-60
2022/12/26 11:35:36;;;;;;;4.53;3.78;;;10.60;99.90;;;;;;5088021;28;20035;-60
2022/12/26 11:38:05;;;;;;;5.35;3.38;;;10.70;99.90;;;;;;5104746;28;20050;-60
2022/12/26 11:40:36;;;;;;;3.90;3.50;;;10.70;99.90;;;;;;5104627;28;20028;-60
2022/12/26 11:43:05;;;;;;;4.47;3.40;;;10.70;99.90;;;;;;5104732;28;20039;-60
2022/12/26 11:45:35;;;;;;;5.50;3.78;;;10.70;99.90;;;;;;5104546;28;20047;-61
2022/12/26 11:48:00;;;;;;;4.10;3.70;;;10.70;99.90;;;;;;5104401;28;20043;-60
2022/12/26 11:50:28;;;;;;;5.05;3.30;;;10.70;99.90;;;;;;5104418;28;20024;-60
2022/12/26 11:52:57;;;;;;;5.93;3.92;;;10.70;99.90;;;;;;5104558;28;20372;-60
2022/12/26 11:55:25;;;;;;;4.45;3.28;;;10.70;99.90;;;;;;5104125;28;20032;-61
2022/12/26 11:58:07;;;;;;;5.72;3.55;;;10.70;99.90;;;;;;5105717;28;20044;-60
2022/12/26 12:00:42;;;;;;;4.35;3.55;;;10.70;99.90;;;;;;5104479;28;20127;-60
2022/12/26 12:03:13;;;;;;;4.30;3.35;;;10.70;99.90;;;;;;5105469;28;20020;-60
2022/12/26 12:05:51;;;;;;;5.07;3.55;;;10.70;99.90;;;;;;5104254;28;20028;-60
2022/12/26 12:08:38;;;;;;;5.97;3.78;;;10.70;99.90;;;;;;5104316;28;20032;-60
2022/12/26 12:11:21;;;;;;;4.15;3.53;;;10.70;99.90;;;;;;5105567;28;20099;-60
2022/12/26 12:14:24;;;;;;;4.80;3.15;;;10.80;99.90;;;;;;5104222;28;20024;-60
2022/12/26 12:17:04;;;;;;;5.38;3.47;;;10.80;99.90;;;;;;5105456;28;20024;-61
2022/12/26 12:20:02;;;;;;;5.53;3.50;;;10.80;99.90;;;;;;5104249;28;20460;-61
2022/12/26 12:22:42;;;;;;;4.75;3.60;;;10.80;99.90;;;;;;5088625;28;20357;-61
2022/12/26 12:25:30;;;;;;;3.55;3.15;;;10.70;99.90;;;;;;5104048;28;20035;-61
2022/12/26 12:28:13;;;;;;;4.65;3.55;;;10.80;99.90;;;;;;5103745;28;20047;-61
2022/12/26 12:30:41;;;;;;;4.43;3.42;;;10.80;99.90;;;;;;5104035;28;20035;-61
2022/12/26 12:33:23;;;;;;;3.63;3.10;;;10.80;99.90;;;;;;5103718;28;20024;-61
2022/12/26 12:36:15;;;;;;;3.97;3.05;;;10.80;99.90;;;;;;5103821;28;20042;-61
2022/12/26 12:39:15;;;;;;;4.20;3.47;;;10.80;99.90;;;;;;5103708;28;20135;-61
2022/12/26 12:42:14;;;;;;;4.43;3.28;;;10.80;99.90;;;;;;5103349;28;20097;-61
2022/12/26 12:45:13;;;;;;;3.08;2.78;;;10.80;99.90;;;;;;5103231;28;20031;-62
2022/12/26 12:47:43;;;;;;;5.15;3.40;;;10.80;99.90;;;;;;5104847;28;20024;-61
2022/12/26 12:50:30;;;;;;;3.30;2.95;;;10.80;99.90;;;;;;5103441;28;20032;-61
2022/12/26 12:53:14;;;;;;;3.50;2.70;;;10.80;99.90;;;;;;5103608;28;20033;-61
2022/12/26 12:55:55;;;;;;;3.88;2.38;;;10.80;99.90;;;;;;5104881;28;20160;-62
2022/12/26 12:58:27;;;;;;;3.90;3.10;;;10.80;99.90;;;;;;5103792;28;20032;-61
2022/12/26 13:00:59;;;;;;;2.50;2.30;;;10.80;99.90;;;;;;5104861;28;20032;-61
2022/12/26 13:03:30;;;;;;;4.28;2.80;;;10.80;99.90;;;;;;5086609;28;20028;-61
2022/12/26 13:06:10;;;;;;;3.85;2.55;;;10.80;99.90;;;;;;5103450;28;20111;-61
2022/12/26 13:08:42;;;;;;;3.10;2.80;;;10.80;99.90;;;;;;5104773;28;20119;-61
2022/12/26 13:11:34;;;;;;;4.78;2.35;;;10.80;99.90;;;;;;5103736;28;20042;-62
2022/12/26 13:14:22;;;;;;;3.72;2.35;;;10.80;99.90;;;;;;5103335;28;20024;-62
2022/12/26 13:16:54;;;;;;;3.13;2.80;;;10.80;99.90;;;;;;5104936;28;20437;-61
2022/12/26 13:19:26;;;;;;;2.85;2.42;;;10.80;99.90;;;;;;5106906;28;20468;-61
2022/12/26 13:21:55;;;;;;;2.80;2.42;;;10.80;99.90;;;;;;5107424;28;20453;-61
2022/12/26 13:24:34;;;;;;;3.45;2.17;;;10.80;99.90;;;;;;5107240;28;20105;-61
2022/12/26 13:27:02;;;;;;;4.68;2.45;;;10.80;99.90;;;;;;5102763;28;20392;-61
2022/12/26 13:29:30;;;;;;;4.72;2.30;;;10.80;99.90;;;;;;5083392;28;20052;-61
2022/12/26 13:31:57;;;;;;;4.18;2.20;;;10.80;99.90;;;;;;5068159;28;20059;-61
2022/12/26 13:34:22;;;;;;;2.75;1.95;;;10.80;99.90;;;;;;5101073;28;20029;-61
2022/12/26 13:36:53;;;;;;;4.28;2.25;;;10.80;99.90;;;;;;5091716;28;20025;-61
2022/12/26 13:39:25;;;;;;;4.38;2.58;;;10.80;99.90;;;;;;5086722;28;20025;-61
2022/12/26 13:44:53;;;;;;;2.40;1.95;;;10.80;99.90;;;;;;5087763;28;20104;-61
2022/12/26 13:47:33;;;;;;;2.17;1.98;;;10.80;99.90;;;;;;5086404;28;20392;-61
2022/12/26 13:50:37;;;;;;;4.00;1.90;;;10.80;99.90;;;;;;5086359;28;20134;-61
2022/12/26 13:53:04;;;;;;;2.58;1.95;;;10.80;99.90;;;;;;5086146;28;20074;-61
2022/12/26 13:55:40;;;;;;;3.53;1.83;;;10.80;99.90;;;;;;5086479;28;20040;-61
2022/12/26 13:58:13;;;;;;;2.55;2.00;;;10.80;99.90;;;;;;5087837;28;20024;-62
2022/12/26 14:00:44;;;;;;;2.47;2.08;;;10.80;99.90;;;;;;5086467;28;20448;-62
2022/12/26 14:03:25;;;;;;;2.05;1.70;;;10.90;99.90;;;;;;5086146;28;20024;-61
2022/12/26 14:06:05;;;;;;;2.22;1.85;;;10.90;99.90;;;;;;5086449;28;20036;-62
2022/12/26 14:08:34;;;;;;;3.17;1.67;;;10.90;99.90;;;;;;5087474;28;20029;-61
2022/12/26 14:11:03;;;;;;;2.80;1.75;;;10.80;99.90;;;;;;5097352;28;20043;-61
2022/12/26 14:13:40;;;;;;;6.13;1.80;;;10.90;99.90;;;;;;5089468;28;20123;-61
2022/12/26 14:16:12;;;;;;;2.08;1.70;;;10.90;99.90;;;;;;5100575;28;20030;-61
2022/12/26 14:18:46;;;;;;;2.78;1.90;;;10.80;99.90;;;;;;5093922;28;20048;-61
2022/12/26 14:21:20;;;;;;;1.85;1.67;;;10.90;99.90;;;;;;5093802;28;20039;-61
2022/12/26 14:23:56;;;;;;;3.67;1.63;;;10.90;99.90;;;;;;5093415;28;20056;-61
2022/12/26 14:26:38;;;;;;;2.65;1.98;;;10.90;99.90;;;;;;5085934;28;20034;-62
2022/12/26 14:29:26;;;;;;;4.13;2.03;;;10.90;99.90;;;;;;5085529;28;20093;-61
2022/12/26 14:32:19;;;;;;;3.33;2.20;;;10.90;99.90;;;;;;5085371;28;20028;-61
2022/12/26 14:35:11;;;;;;;2.90;1.90;;;10.90;99.90;;;;;;5097763;28;20024;-61
2022/12/26 14:38:10;;;;;;;2.78;1.70;;;10.90;99.90;;;;;;5067127;28;20040;-61
2022/12/26 14:40:37;;;;;;;3.15;2.03;;;10.90;99.90;;;;;;5075329;28;20059;-61
2022/12/26 14:43:16;;;;;;;2.75;1.80;;;10.90;99.90;;;;;;5098849;28;20032;-62
2022/12/26 14:45:46;;;;;;;2.45;2.00;;;10.90;99.90;;;;;;5086720;28;20048;-61
2022/12/26 14:48:15;;;;;;;2.70;1.90;;;10.90;99.90;;;;;;5086176;28;20031;-61
2022/12/26 14:50:54;;;;;;;2.50;1.60;;;10.90;99.90;;;;;;5085155;28;20085;-61
2022/12/26 14:53:26;;;;;;;3.25;2.05;;;10.90;99.90;;;;;;5085412;28;20039;-61
2022/12/26 14:56:01;;;;;;;2.40;1.63;;;10.90;99.90;;;;;;5090565;28;20417;-61
2022/12/26 14:58:30;;;;;;;;;;;10.90;99.90;;;;;;5077579;28;20029;-60
2022/12/26 15:01:19;;;;;;;4.47;1.98;;;10.90;99.90;;;;;;5086703;28;19923;-61
2022/12/26 15:03:58;;;;;;;1.77;1.60;;;10.90;99.90;;;;;;5085524;28;20052;-61
2022/12/26 15:06:24;;;;;;;2.70;1.90;;;10.90;99.90;;;;;;5101720;28;20043;-61
2022/12/26 15:08:53;;;;;;;2.80;1.65;;;10.90;99.90;;;;;;5086975;28;20029;-61
2022/12/26 15:11:45;;;;;;;2.65;1.90;;;10.90;99.90;;;;;;5080488;28;20029;-61
2022/12/26 15:14:38;;;;;;;2.92;1.60;;;10.90;99.90;;;;;;5064984;28;20052;-61
2022/12/26 15:17:12;;;;;;;1.63;1.38;;;10.90;99.90;;;;;;5072550;28;20048;-61
2022/12/26 15:20:02;;;;;;;1.58;1.30;;;10.90;99.90;;;;;;5078337;28;20052;-61
2022/12/26 15:22:46;;;;;;;2.03;1.52;;;10.90;99.90;;;;;;5085865;28;20040;-61
2022/12/26 15:25:49;;;;;;;3.13;1.70;;;10.90;99.90;;;;;;5101453;28;20028;-61
2022/12/26 15:28:45;;;;;;;1.67;1.40;;;10.90;99.90;;;;;;5095797;28;20032;-60